Time;durP1;ratioP1;P1;durP2;ratioP2;P2;SDS_P1;SDS_P2;PMS_P1;PMS_P2;Temp;Humidity;BMP_temperature;BMP_pressure;BME280_temperature;BME280_humidity;BME280_pressure;Samples;Min_cycle;Max_cycle;Signal;HPM_P1;HPM_P2
2021/03/04 00:00:10;;;;;;;43.30;17.27;;;6.10;99.90;;;;;;4973136;28;20221;-72
2021/03/04 00:02:37;;;;;;;51.23;18.83;;;6.10;99.90;;;;;;4991031;28;20216;-72
2021/03/04 00:05:04;;;;;;;69.73;21.13;;;6.00;99.90;;;;;;4992770;28;20612;-72
2021/03/04 00:07:32;;;;;;;74.53;22.73;;;6.00;99.90;;;;;;4990662;28;20204;-72
2021/03/04 00:09:59;;;;;;;76.50;22.50;;;5.90;99.90;;;;;;4992597;28;20212;-72
2021/03/04 00:12:25;;;;;;;102.77;25.67;;;5.90;99.90;;;;;;4953452;28;20658;-72
2021/03/04 00:14:52;;;;;;;88.07;24.47;;;5.90;99.90;;;;;;4953441;28;20205;-72
2021/03/04 00:17:19;;;;;;;82.87;22.20;;;5.80;99.90;;;;;;4953732;28;20365;-72
2021/03/04 00:19:45;;;;;;;61.40;18.50;;;5.80;99.90;;;;;;4934701;29;20225;-72
2021/03/04 00:22:13;;;;;;;56.23;19.17;;;5.80;99.90;;;;;;4938724;29;20233;-72
2021/03/04 00:24:40;;;;;;;57.03;19.10;;;5.80;99.90;;;;;;4953517;29;20550;-72
2021/03/04 00:27:08;;;;;;;62.27;19.47;;;5.70;99.90;;;;;;4936695;28;20239;-72
2021/03/04 00:29:34;;;;;;;54.97;17.87;;;5.70;99.90;;;;;;4953201;29;20252;-72
2021/03/04 00:32:01;;;;;;;42.03;16.13;;;5.70;99.90;;;;;;4953812;29;20614;-72
2021/03/04 00:34:27;;;;;;;43.70;17.07;;;5.70;99.90;;;;;;4934900;29;20565;-72
2021/03/04 00:36:54;;;;;;;38.43;15.13;;;5.60;99.90;;;;;;4934022;29;20207;-72
2021/03/04 00:39:21;;;;;;;44.20;17.20;;;5.60;99.90;;;;;;4934143;29;20205;-72
2021/03/04 00:41:49;;;;;;;42.87;16.90;;;5.60;99.90;;;;;;4934304;29;20277;-72
2021/03/04 00:44:15;;;;;;;41.40;17.47;;;5.60;99.90;;;;;;4934172;29;20217;-72
2021/03/04 00:46:42;;;;;;;60.70;18.73;;;5.60;99.90;;;;;;4934412;29;20221;-73
2021/03/04 00:49:08;;;;;;;90.60;24.00;;;5.50;99.90;;;;;;4934196;29;20202;-72
2021/03/04 00:51:35;;;;;;;105.40;28.00;;;5.50;99.90;;;;;;4922110;29;20203;-72
2021/03/04 00:54:02;;;;;;;85.83;26.47;;;5.50;99.90;;;;;;4933963;29;20261;-72
2021/03/04 00:56:28;;;;;;;70.53;22.50;;;5.50;99.90;;;;;;4933976;29;20209;-72
2021/03/04 00:58:56;;;;;;;68.50;21.97;;;5.50;99.90;;;;;;4922431;29;20252;-72
2021/03/04 01:01:22;;;;;;;54.93;20.23;;;5.50;99.90;;;;;;4956372;28;20237;-72
2021/03/04 01:03:49;;;;;;;51.43;19.37;;;5.50;99.90;;;;;;4976333;28;20208;-72
2021/03/04 01:06:16;;;;;;;47.43;18.93;;;5.50;99.90;;;;;;4992300;28;20207;-72
2021/03/04 01:08:45;;;;;;;47.67;18.53;;;5.50;99.90;;;;;;4969473;28;20205;-72
2021/03/04 01:11:12;;;;;;;52.73;20.77;;;5.50;99.90;;;;;;4980173;28;20207;-72
2021/03/04 01:13:38;;;;;;;53.57;22.10;;;5.50;99.90;;;;;;5011465;28;20574;-72
2021/03/04 01:16:06;;;;;;;51.03;20.93;;;5.50;99.90;;;;;;5011913;28;20210;-72
2021/03/04 01:18:33;;;;;;;42.97;18.93;;;5.50;99.90;;;;;;5011113;28;20534;-72
2021/03/04 01:20:59;;;;;;;42.27;18.50;;;5.50;99.90;;;;;;5011322;28;20496;-72
2021/03/04 01:23:26;;;;;;;37.27;17.00;;;5.50;99.90;;;;;;5011101;28;20273;-72
2021/03/04 01:25:53;;;;;;;47.50;19.90;;;5.50;99.90;;;;;;5010789;28;20212;-72
2021/03/04 01:28:19;;;;;;;43.73;20.20;;;5.50;99.90;;;;;;4995032;28;20629;-72
2021/03/04 01:30:46;;;;;;;49.53;21.30;;;5.50;99.90;;;;;;4995295;28;20235;-72
2021/03/04 01:33:14;;;;;;;46.50;19.17;;;5.50;99.90;;;;;;4995643;28;20204;-72
2021/03/04 01:35:40;;;;;;;45.63;20.93;;;5.60;99.90;;;;;;4999405;28;20203;-72
2021/03/04 01:38:07;;;;;;;48.23;20.63;;;5.70;99.90;;;;;;4995760;28;20208;-72
2021/03/04 01:40:33;;;;;;;43.13;19.43;;;5.80;99.90;;;;;;4995104;28;20227;-72
2021/03/04 01:43:00;;;;;;;49.27;20.63;;;5.80;99.90;;;;;;4995333;28;20216;-72
2021/03/04 01:45:27;;;;;;;43.37;18.27;;;5.80;99.90;;;;;;4994877;28;20204;-72
2021/03/04 01:47:55;;;;;;;48.87;19.53;;;5.90;99.90;;;;;;5011088;28;20203;-72
2021/03/04 01:50:24;;;;;;;45.23;19.83;;;5.90;99.90;;;;;;4998206;28;20549;-72
2021/03/04 01:52:50;;;;;;;47.00;19.73;;;6.00;99.90;;;;;;4994766;28;20318;-72
2021/03/04 01:55:19;;;;;;;47.10;20.57;;;6.00;99.90;;;;;;5011457;28;20315;-72
2021/03/04 01:57:47;;;;;;;47.33;20.43;;;6.00;99.90;;;;;;4975666;28;20211;-72
2021/03/04 02:00:16;;;;;;;46.80;21.60;;;5.90;99.90;;;;;;4955617;29;20272;-72
2021/03/04 02:02:43;;;;;;;48.30;20.77;;;5.90;99.90;;;;;;4956009;29;20214;-72
2021/03/04 02:05:12;;;;;;;42.30;19.63;;;5.80;99.90;;;;;;4956571;28;20240;-72
2021/03/04 02:07:48;;;;;;;46.30;19.33;;;5.80;99.90;;;;;;4955756;29;20575;-72
2021/03/04 02:10:21;;;;;;;59.37;21.47;;;5.80;99.90;;;;;;4955798;28;20250;-72
2021/03/04 02:12:57;;;;;;;60.87;22.83;;;5.80;99.90;;;;;;4917906;29;20528;-72
2021/03/04 02:15:28;;;;;;;62.70;23.70;;;5.70;99.90;;;;;;4902477;29;20257;-72
2021/03/04 02:17:59;;;;;;;51.83;20.43;;;5.80;99.90;;;;;;4917863;29;20656;-72
2021/03/04 02:20:36;;;;;;;51.13;21.93;;;5.70;99.90;;;;;;4917608;29;20578;-72
2021/03/04 02:23:30;;;;;;;49.43;20.60;;;5.80;99.90;;;;;;4936152;29;20231;-72
2021/03/04 02:26:06;;;;;;;50.97;20.90;;;5.80;99.90;;;;;;4962384;28;20209;-72
2021/03/04 02:28:34;;;;;;;54.83;23.40;;;5.90;99.90;;;;;;4982792;28;20215;-72
2021/03/04 02:31:04;;;;;;;64.87;26.17;;;5.90;99.90;;;;;;4994101;28;20236;-72
2021/03/04 02:33:32;;;;;;;73.37;27.63;;;6.00;99.90;;;;;;4974832;28;20240;-72
2021/03/04 02:36:00;;;;;;;68.40;27.53;;;5.90;99.90;;;;;;4974173;28;20278;-72
2021/03/04 02:38:28;;;;;;;67.07;25.43;;;6.00;99.90;;;;;;4959615;28;20217;-72
2021/03/04 02:40:57;;;;;;;66.07;25.53;;;5.90;99.90;;;;;;4955533;29;20226;-73
2021/03/04 02:43:26;;;;;;;66.37;25.10;;;5.90;99.90;;;;;;4961424;28;20211;-73
2021/03/04 02:45:55;;;;;;;52.70;22.37;;;5.80;99.90;;;;;;4974605;28;20217;-72
2021/03/04 02:48:23;;;;;;;53.57;22.50;;;5.80;99.90;;;;;;4979558;28;20208;-72
2021/03/04 02:50:52;;;;;;;48.63;21.33;;;5.80;99.90;;;;;;4993727;28;20260;-72
2021/03/04 02:53:20;;;;;;;46.47;19.80;;;5.70;99.90;;;;;;5016793;28;20228;-72
2021/03/04 02:55:47;;;;;;;45.87;20.70;;;5.70;99.90;;;;;;4993411;28;20197;-72
2021/03/04 02:58:15;;;;;;;48.97;20.60;;;5.70;99.90;;;;;;4993521;28;20638;-72
2021/03/04 03:00:43;;;;;;;43.67;19.20;;;5.70;99.90;;;;;;4993473;28;20294;-72
2021/03/04 03:03:12;;;;;;;48.77;21.03;;;5.60;99.90;;;;;;4993564;28;20251;-72
2021/03/04 03:05:41;;;;;;;47.30;21.10;;;5.70;99.90;;;;;;4993597;28;20229;-72
2021/03/04 03:08:09;;;;;;;43.17;19.90;;;5.70;99.90;;;;;;4993084;28;20207;-72
2021/03/04 03:10:36;;;;;;;43.23;19.50;;;5.70;99.90;;;;;;4993742;28;20241;-72
2021/03/04 03:13:04;;;;;;;49.87;21.00;;;5.60;99.90;;;;;;4973807;28;20615;-72
2021/03/04 03:15:30;;;;;;;52.43;22.97;;;5.60;99.90;;;;;;4993656;28;20200;-72
2021/03/04 03:17:57;;;;;;;47.13;21.87;;;5.60;99.90;;;;;;4993317;28;20211;-72
2021/03/04 03:20:25;;;;;;;49.93;21.23;;;5.60;99.90;;;;;;4993074;28;20230;-72
2021/03/04 03:22:53;;;;;;;44.90;19.93;;;5.60;99.90;;;;;;4992960;28;20204;-72
2021/03/04 03:25:20;;;;;;;56.03;23.10;;;5.60;99.90;;;;;;4975159;28;20256;-72
2021/03/04 03:27:47;;;;;;;52.00;22.37;;;5.60;99.90;;;;;;4973368;28;20232;-72
2021/03/04 03:30:17;;;;;;;57.70;24.80;;;5.60;99.90;;;;;;4955927;28;20265;-72
2021/03/04 03:32:49;;;;;;;57.23;25.73;;;5.60;99.90;;;;;;4998351;28;20285;-72
2021/03/04 03:35:18;;;;;;;68.37;28.00;;;5.60;99.90;;;;;;5012451;28;20249;-72
2021/03/04 03:37:47;;;;;;;61.50;26.70;;;5.60;99.90;;;;;;4956106;28;20555;-73
2021/03/04 03:40:16;;;;;;;61.10;25.30;;;5.60;99.90;;;;;;4954626;29;20271;-73
2021/03/04 03:42:43;;;;;;;53.20;21.83;;;5.60;99.90;;;;;;4934805;29;20214;-72
2021/03/04 03:45:15;;;;;;;61.37;23.63;;;5.60;99.90;;;;;;4972193;28;20200;-72
2021/03/04 03:47:43;;;;;;;58.93;24.40;;;5.60;99.90;;;;;;4973337;28;20204;-72
2021/03/04 03:50:15;;;;;;;56.23;23.70;;;5.60;99.90;;;;;;4973537;28;20201;-72
2021/03/04 03:52:43;;;;;;;55.00;23.07;;;5.50;99.90;;;;;;4973366;28;20227;-72
2021/03/04 03:55:12;;;;;;;52.20;22.30;;;5.60;99.90;;;;;;4973161;28;20205;-72
2021/03/04 03:57:41;;;;;;;59.07;25.40;;;5.60;99.90;;;;;;4953754;28;20213;-72
2021/03/04 04:00:08;;;;;;;55.77;23.27;;;5.50;99.90;;;;;;4953632;29;20217;-72
2021/03/04 04:02:35;;;;;;;52.33;22.17;;;5.50;99.90;;;;;;4953741;29;20212;-72
2021/03/04 04:05:04;;;;;;;56.67;24.07;;;5.50;99.90;;;;;;4953579;29;20260;-72
2021/03/04 04:07:31;;;;;;;54.27;23.73;;;5.50;99.90;;;;;;4953650;29;20209;-72
2021/03/04 04:09:59;;;;;;;59.13;23.70;;;5.50;99.90;;;;;;4927293;29;20640;-72
2021/03/04 04:12:28;;;;;;;60.30;23.00;;;5.50;99.90;;;;;;4934250;29;20198;-72
2021/03/04 04:14:55;;;;;;;56.33;24.10;;;5.50;99.90;;;;;;4991607;28;20211;-72
2021/03/04 04:17:22;;;;;;;59.27;24.00;;;5.50;99.90;;;;;;4897072;29;20213;-72
2021/03/04 04:19:49;;;;;;;52.17;22.30;;;5.50;99.90;;;;;;4896998;29;20210;-72
2021/03/04 04:22:17;;;;;;;52.37;22.80;;;5.40;99.90;;;;;;4953705;29;20597;-72
2021/03/04 04:24:44;;;;;;;60.87;25.17;;;5.50;99.90;;;;;;4947900;29;20210;-72
2021/03/04 04:27:12;;;;;;;59.97;23.67;;;5.50;99.90;;;;;;4953115;29;20244;-72
2021/03/04 04:29:39;;;;;;;67.17;26.53;;;5.50;99.90;;;;;;4971137;28;20204;-72
2021/03/04 04:32:07;;;;;;;64.80;26.77;;;5.40;99.90;;;;;;4953212;29;20209;-72
2021/03/04 04:34:34;;;;;;;64.10;25.10;;;5.40;99.90;;;;;;4971023;28;20596;-72
2021/03/04 04:37:00;;;;;;;70.63;27.13;;;5.40;99.90;;;;;;4953789;29;20380;-72
2021/03/04 04:39:27;;;;;;;62.30;24.93;;;5.40;99.90;;;;;;4953382;28;20197;-72
2021/03/04 04:41:53;;;;;;;60.07;24.33;;;5.50;99.90;;;;;;4953285;29;20225;-72
2021/03/04 04:44:20;;;;;;;62.60;26.20;;;5.50;99.90;;;;;;4970007;28;20212;-72
2021/03/04 04:46:47;;;;;;;71.83;27.57;;;5.40;99.90;;;;;;4973180;28;20209;-72
2021/03/04 04:49:14;;;;;;;64.23;25.73;;;5.40;99.90;;;;;;4989812;28;20207;-72
2021/03/04 04:51:41;;;;;;;59.47;25.27;;;5.40;99.90;;;;;;4991843;28;20208;-72
2021/03/04 04:54:07;;;;;;;60.10;24.90;;;5.50;99.90;;;;;;4956040;28;20201;-72
2021/03/04 04:56:34;;;;;;;61.90;25.53;;;5.50;99.90;;;;;;4972140;28;20287;-72
2021/03/04 04:59:01;;;;;;;60.83;24.07;;;5.50;99.90;;;;;;4972037;28;20208;-72
2021/03/04 05:01:27;;;;;;;53.57;23.53;;;5.50;99.90;;;;;;4975881;28;20231;-72
2021/03/04 05:03:55;;;;;;;54.53;24.13;;;5.60;99.90;;;;;;4975619;28;20255;-72
2021/03/04 05:06:21;;;;;;;55.93;23.30;;;5.60;99.90;;;;;;4956678;29;20328;-72
2021/03/04 05:08:48;;;;;;;60.70;23.70;;;5.60;99.90;;;;;;4976420;28;20248;-72
2021/03/04 05:11:16;;;;;;;61.13;24.17;;;5.60;99.90;;;;;;4976471;28;20245;-72
2021/03/04 05:13:44;;;;;;;61.57;25.83;;;5.60;99.90;;;;;;4995347;28;20208;-72
2021/03/04 05:16:10;;;;;;;61.80;25.43;;;5.60;99.90;;;;;;4995298;28;20282;-72
2021/03/04 05:18:37;;;;;;;61.17;25.40;;;5.60;99.90;;;;;;4995291;28;20765;-72
2021/03/04 05:21:05;;;;;;;61.80;25.03;;;5.60;99.90;;;;;;4995309;28;20228;-72
2021/03/04 05:23:32;;;;;;;61.37;25.10;;;5.60;99.90;;;;;;4976192;28;20239;-72
2021/03/04 05:25:59;;;;;;;62.17;25.70;;;5.60;99.90;;;;;;4978582;28;20209;-72
2021/03/04 05:28:26;;;;;;;63.60;27.53;;;5.60;99.90;;;;;;4943529;28;20202;-72
2021/03/04 05:30:52;;;;;;;74.10;30.83;;;5.60;99.90;;;;;;4905617;29;20215;-72
2021/03/04 05:33:19;;;;;;;74.37;30.50;;;5.60;99.90;;;;;;4899409;29;20214;-72
2021/03/04 05:35:46;;;;;;;72.73;29.93;;;5.60;99.90;;;;;;4953214;29;20559;-72
2021/03/04 05:38:14;;;;;;;66.20;27.73;;;5.60;99.90;;;;;;4956371;28;20660;-72
2021/03/04 05:40:41;;;;;;;69.87;30.30;;;5.60;99.90;;;;;;4940406;28;20230;-72
2021/03/04 05:43:09;;;;;;;62.53;27.40;;;5.60;99.90;;;;;;4936966;29;20250;-72
2021/03/04 05:45:36;;;;;;;66.97;27.40;;;5.60;99.90;;;;;;4937178;29;20285;-72
2021/03/04 05:48:04;;;;;;;65.77;27.23;;;5.60;99.90;;;;;;4937718;29;20652;-72
2021/03/04 05:50:32;;;;;;;56.17;24.43;;;5.70;99.90;;;;;;4949635;28;20213;-72
2021/03/04 05:53:05;;;;;;;59.63;24.37;;;5.80;99.90;;;;;;4956916;29;20216;-72
2021/03/04 05:55:33;;;;;;;54.00;24.00;;;5.80;99.90;;;;;;4973261;28;20208;-72
2021/03/04 05:58:02;;;;;;;61.07;25.30;;;5.90;99.90;;;;;;4994601;28;20204;-72
2021/03/04 06:00:28;;;;;;;55.50;24.73;;;6.00;99.90;;;;;;4994354;28;20217;-72
2021/03/04 06:02:55;;;;;;;59.33;24.17;;;6.00;99.90;;;;;;4994942;28;20251;-72
2021/03/04 06:05:22;;;;;;;54.10;22.27;;;6.00;99.90;;;;;;4994647;28;20196;-72
2021/03/04 06:07:48;;;;;;;57.90;22.73;;;6.10;99.90;;;;;;4994215;28;20212;-72
2021/03/04 06:10:16;;;;;;;55.40;23.37;;;6.20;99.90;;;;;;4955269;28;20205;-72
2021/03/04 06:12:43;;;;;;;65.47;24.67;;;6.20;99.90;;;;;;4955694;29;20214;-72
2021/03/04 06:15:11;;;;;;;61.93;24.60;;;6.30;99.90;;;;;;4937858;29;20213;-72
2021/03/04 06:17:38;;;;;;;66.53;25.80;;;6.40;99.90;;;;;;4936868;29;20207;-72
2021/03/04 06:20:07;;;;;;;55.07;23.90;;;6.40;99.90;;;;;;4936218;29;20207;-72
2021/03/04 06:22:35;;;;;;;57.60;22.87;;;6.50;99.90;;;;;;4936157;29;20705;-72
2021/03/04 06:25:07;;;;;;;55.53;22.30;;;6.50;99.90;;;;;;4954033;29;20603;-72
2021/03/04 06:27:35;;;;;;;54.80;22.07;;;6.60;99.90;;;;;;4955235;29;20772;-72
2021/03/04 06:30:06;;;;;;;61.77;22.93;;;6.70;99.90;;;;;;4938227;28;20692;-72
2021/03/04 06:32:33;;;;;;;64.13;23.73;;;6.80;99.90;;;;;;4938861;28;20212;-72
2021/03/04 06:35:07;;;;;;;58.17;21.40;;;6.80;99.90;;;;;;4972425;28;20209;-72
2021/03/04 06:37:35;;;;;;;54.27;21.17;;;6.90;99.90;;;;;;4974859;28;20213;-72
2021/03/04 06:40:03;;;;;;;56.53;20.97;;;6.90;99.90;;;;;;4994609;28;20265;-72
2021/03/04 06:42:39;;;;;;;51.90;21.80;;;7.00;99.90;;;;;;5033626;28;20213;-72
2021/03/04 06:45:09;;;;;;;58.37;24.10;;;7.10;99.90;;;;;;5033281;28;20309;-72
2021/03/04 06:47:35;;;;;;;59.93;23.33;;;7.10;99.90;;;;;;4994012;28;20226;-72
2021/03/04 06:50:02;;;;;;;48.77;21.47;;;7.20;99.90;;;;;;4993936;28;20633;-72
2021/03/04 06:52:30;;;;;;;50.63;20.10;;;7.30;99.90;;;;;;5002217;28;20243;-72
2021/03/04 06:55:07;;;;;;;53.80;23.00;;;7.40;99.90;;;;;;4955499;28;20208;-72
2021/03/04 06:57:34;;;;;;;56.80;23.53;;;7.50;99.90;;;;;;4974345;28;20221;-72
2021/03/04 07:00:01;;;;;;;43.97;20.33;;;7.60;99.90;;;;;;4993721;28;20208;-72
2021/03/04 07:02:29;;;;;;;41.43;19.33;;;7.70;99.90;;;;;;5012821;28;20296;-72
2021/03/04 07:04:57;;;;;;;49.63;20.50;;;7.80;99.90;;;;;;4973966;28;20212;-73
2021/03/04 07:07:25;;;;;;;48.70;20.43;;;7.90;99.90;;;;;;4974087;28;20686;-73
2021/03/04 07:09:53;;;;;;;42.63;19.07;;;8.00;99.90;;;;;;4955114;29;20271;-73
2021/03/04 07:12:21;;;;;;;43.87;19.60;;;8.10;99.90;;;;;;4973549;28;20235;-73
2021/03/04 07:14:49;;;;;;;43.23;19.83;;;8.20;99.90;;;;;;4973558;28;20694;-73
2021/03/04 07:17:17;;;;;;;49.67;20.63;;;8.40;99.90;;;;;;4955362;28;20283;-73
2021/03/04 07:19:50;;;;;;;46.23;20.77;;;8.60;99.90;;;;;;4935991;29;20213;-73
2021/03/04 07:22:19;;;;;;;50.77;20.83;;;8.80;99.90;;;;;;4934777;29;20237;-73
2021/03/04 07:24:47;;;;;;;52.87;21.63;;;9.00;99.90;;;;;;4935474;29;20202;-73
2021/03/04 07:27:15;;;;;;;49.40;20.73;;;9.20;99.90;;;;;;4953983;29;20244;-73
2021/03/04 07:29:43;;;;;;;50.47;22.03;;;9.40;99.90;;;;;;4973034;28;20252;-73
2021/03/04 07:32:11;;;;;;;45.43;20.93;;;9.60;99.90;;;;;;4973668;28;20261;-73
2021/03/04 07:34:39;;;;;;;55.30;22.10;;;9.70;99.90;;;;;;5011740;28;20212;-73
2021/03/04 07:37:08;;;;;;;51.27;22.20;;;9.80;99.90;;;;;;5051691;28;20594;-73
2021/03/04 07:39:36;;;;;;;54.77;22.47;;;9.40;99.90;;;;;;5052049;28;20203;-73
2021/03/04 07:42:04;;;;;;;51.07;22.80;;;10.10;99.90;;;;;;5052370;28;20265;-73
2021/03/04 07:44:33;;;;;;;56.27;23.80;;;10.40;99.90;;;;;;5052209;28;20198;-73
2021/03/04 07:47:01;;;;;;;51.57;21.80;;;10.90;99.90;;;;;;5091586;28;20250;-73
2021/03/04 07:49:32;;;;;;;50.67;22.70;;;11.30;99.90;;;;;;5071814;28;20240;-71
2021/03/04 07:52:08;;;;;;;55.23;22.83;;;11.70;99.90;;;;;;5052368;28;20201;-73
2021/03/04 07:54:35;;;;;;;55.23;23.40;;;11.70;99.90;;;;;;5031975;28;20217;-72
2021/03/04 07:57:07;;;;;;;55.90;23.23;;;11.70;99.90;;;;;;5003797;28;20210;-73
2021/03/04 07:59:34;;;;;;;50.07;22.87;;;11.70;99.90;;;;;;4992322;28;20660;-73
2021/03/04 08:02:02;;;;;;;55.00;24.57;;;11.60;99.90;;;;;;4992649;28;20284;-73
2021/03/04 08:04:30;;;;;;;53.90;26.00;;;11.50;99.90;;;;;;4992871;28;20734;-73
2021/03/04 08:06:58;;;;;;;52.57;24.40;;;11.40;99.90;;;;;;5012480;28;20605;-73
2021/03/04 08:09:31;;;;;;;50.03;24.47;;;11.40;99.90;;;;;;5012103;28;20285;-73
2021/03/04 08:12:05;;;;;;;52.30;24.70;;;11.40;99.90;;;;;;5012342;28;20210;-71
2021/03/04 08:14:32;;;;;;;58.07;23.67;;;11.50;99.90;;;;;;4992197;28;20266;-73
2021/03/04 08:16:59;;;;;;;53.87;24.07;;;11.50;99.90;;;;;;4992149;28;20208;-73
2021/03/04 08:19:29;;;;;;;48.17;23.20;;;11.70;99.90;;;;;;4992239;28;20204;-73
2021/03/04 08:22:03;;;;;;;52.40;22.83;;;11.70;99.90;;;;;;4992275;28;20280;-73
2021/03/04 08:24:32;;;;;;;51.63;23.40;;;11.70;99.90;;;;;;4979133;28;20208;-73
2021/03/04 08:26:59;;;;;;;49.10;23.53;;;11.70;99.90;;;;;;5022248;28;20632;-73
2021/03/04 08:29:26;;;;;;;46.60;21.63;;;11.70;99.90;;;;;;5030940;28;20353;-73
2021/03/04 08:31:56;;;;;;;54.20;25.13;;;11.80;99.90;;;;;;5012261;28;20525;-73
2021/03/04 08:34:23;;;;;;;52.23;23.90;;;12.00;99.90;;;;;;4995814;28;20214;-73
2021/03/04 08:36:53;;;;;;;51.80;24.17;;;12.00;99.90;;;;;;4998637;28;20670;-73
2021/03/04 08:39:23;;;;;;;52.13;25.17;;;12.10;99.90;;;;;;4998616;28;20620;-73
2021/03/04 08:42:00;;;;;;;50.87;24.80;;;12.30;99.90;;;;;;4998623;28;20309;-73
2021/03/04 08:44:27;;;;;;;50.23;24.80;;;12.30;99.90;;;;;;4999436;28;20207;-73
2021/03/04 08:46:53;;;;;;;50.10;23.77;;;12.40;99.90;;;;;;5018884;28;20211;-73
2021/03/04 08:49:20;;;;;;;51.20;24.50;;;12.50;99.90;;;;;;4998461;28;20297;-73
2021/03/04 08:51:47;;;;;;;49.83;25.30;;;12.50;99.90;;;;;;4998376;28;20648;-73
2021/03/04 08:54:22;;;;;;;54.87;24.87;;;12.60;99.90;;;;;;4998252;28;20207;-73
2021/03/04 08:56:54;;;;;;;50.17;24.40;;;12.60;99.90;;;;;;4998660;28;20565;-73
2021/03/04 08:59:21;;;;;;;54.37;25.77;;;12.70;99.90;;;;;;4998641;28;20230;-73
2021/03/04 09:01:48;;;;;;;56.93;27.00;;;12.60;99.90;;;;;;4979614;28;20227;-73
2021/03/04 09:04:17;;;;;;;54.77;26.47;;;12.60;99.90;;;;;;5017725;28;20203;-73
2021/03/04 09:06:44;;;;;;;58.13;24.50;;;12.60;99.90;;;;;;5017793;28;20268;-73
2021/03/04 09:09:20;;;;;;;53.37;24.53;;;12.60;99.90;;;;;;5018073;28;20195;-72
2021/03/04 09:11:48;;;;;;;56.07;25.87;;;12.70;99.90;;;;;;4978608;28;20710;-73
2021/03/04 09:14:16;;;;;;;53.63;26.37;;;12.70;99.90;;;;;;4979342;28;20770;-72
2021/03/04 09:16:44;;;;;;;58.57;26.60;;;12.80;99.90;;;;;;4959627;29;20197;-73
2021/03/04 09:19:11;;;;;;;65.17;29.77;;;12.80;99.90;;;;;;4959540;28;20202;-72
2021/03/04 09:21:38;;;;;;;62.00;30.70;;;12.80;99.90;;;;;;4958463;28;20229;-73
2021/03/04 09:24:09;;;;;;;61.13;30.13;;;12.80;99.90;;;;;;4940396;29;20245;-73
2021/03/04 09:26:36;;;;;;;67.80;30.80;;;12.80;99.90;;;;;;4978638;28;20764;-73
2021/03/04 09:29:03;;;;;;;62.00;30.03;;;12.80;99.90;;;;;;4978696;28;20200;-72
2021/03/04 09:31:30;;;;;;;59.87;29.53;;;12.70;99.90;;;;;;4978451;28;20203;-73
2021/03/04 09:33:59;;;;;;;53.43;28.27;;;12.60;99.90;;;;;;4978572;28;20217;-73
2021/03/04 09:36:26;;;;;;;59.83;29.20;;;12.50;99.90;;;;;;4959803;28;20207;-72
2021/03/04 09:38:54;;;;;;;58.77;28.13;;;12.60;99.90;;;;;;4978533;28;20209;-72
2021/03/04 09:41:22;;;;;;;53.40;26.60;;;12.60;99.90;;;;;;4978502;28;20228;-72
2021/03/04 09:43:50;;;;;;;66.70;29.70;;;12.80;99.90;;;;;;5014521;28;20255;-72
2021/03/04 09:46:27;;;;;;;63.43;31.00;;;12.90;99.90;;;;;;4994553;28;20302;-72
2021/03/04 09:48:55;;;;;;;62.77;29.07;;;13.00;99.90;;;;;;4995032;28;20211;-71
2021/03/04 09:51:33;;;;;;;61.50;30.87;;;13.00;99.90;;;;;;4975046;28;20292;-72
2021/03/04 09:54:00;;;;;;;66.13;31.33;;;13.10;99.90;;;;;;4982538;28;20232;-72
2021/03/04 09:56:26;;;;;;;62.87;30.30;;;13.10;99.90;;;;;;4974887;28;20239;-73
2021/03/04 09:58:53;;;;;;;60.13;29.83;;;13.00;99.90;;;;;;4975344;28;20335;-72
2021/03/04 10:01:31;;;;;;;64.83;30.23;;;13.00;99.90;;;;;;4994584;28;20223;-73
2021/03/04 10:04:06;;;;;;;54.60;27.93;;;13.00;99.90;;;;;;4983644;28;20220;-73
2021/03/04 10:06:34;;;;;;;56.50;27.97;;;13.00;99.90;;;;;;4994412;28;20281;-72
2021/03/04 10:09:01;;;;;;;57.70;29.50;;;13.10;99.90;;;;;;4995155;28;20266;-71
2021/03/04 10:11:31;;;;;;;52.47;27.13;;;13.10;99.90;;;;;;4975407;28;20201;-73
2021/03/04 10:14:07;;;;;;;54.87;26.90;;;13.10;99.90;;;;;;4975152;28;20660;-73
2021/03/04 10:16:34;;;;;;;59.30;27.87;;;13.20;99.90;;;;;;4978751;28;20250;-73
2021/03/04 10:19:01;;;;;;;55.30;26.50;;;13.20;99.70;;;;;;4994484;28;20212;-73
2021/03/04 10:21:28;;;;;;;53.57;26.67;;;13.30;99.40;;;;;;4996873;28;20228;-73
2021/03/04 10:23:55;;;;;;;52.07;26.67;;;13.30;99.20;;;;;;4994618;28;20211;-73
2021/03/04 10:26:22;;;;;;;54.53;26.57;;;13.30;99.10;;;;;;4995040;28;20582;-73
2021/03/04 10:28:49;;;;;;;45.80;25.20;;;13.30;99.10;;;;;;4994542;28;20215;-73
2021/03/04 10:31:15;;;;;;;54.20;27.67;;;13.40;98.90;;;;;;4993211;28;20200;-73
2021/03/04 10:33:42;;;;;;;51.70;26.30;;;13.40;98.50;;;;;;4974868;28;20270;-73
2021/03/04 10:36:09;;;;;;;51.73;27.03;;;13.40;98.30;;;;;;4975220;28;20211;-73
2021/03/04 10:38:37;;;;;;;53.17;26.10;;;13.30;98.10;;;;;;4955108;28;20202;-73
2021/03/04 10:41:03;;;;;;;49.20;26.33;;;13.30;98.20;;;;;;4955054;28;20230;-73
2021/03/04 10:43:30;;;;;;;57.43;28.07;;;13.20;98.20;;;;;;4954869;29;20415;-72
2021/03/04 10:45:57;;;;;;;49.20;26.57;;;13.20;98.30;;;;;;4971906;28;20612;-73
2021/03/04 10:48:24;;;;;;;56.10;27.73;;;13.20;98.30;;;;;;4974052;28;20211;-73
2021/03/04 10:50:50;;;;;;;53.03;26.70;;;13.20;98.20;;;;;;4954588;29;20201;-73
2021/03/04 10:53:17;;;;;;;55.70;27.33;;;13.20;97.90;;;;;;4954983;29;20202;-73
2021/03/04 10:55:45;;;;;;;46.03;23.90;;;13.20;97.70;;;;;;4970790;28;20236;-72
2021/03/04 10:58:11;;;;;;;54.80;27.47;;;13.20;97.80;;;;;;4972905;28;20204;-73
2021/03/04 11:00:38;;;;;;;56.53;28.60;;;13.20;97.50;;;;;;4973719;28;20208;-73
2021/03/04 11:03:05;;;;;;;60.73;28.83;;;13.20;97.30;;;;;;4974148;28;20220;-73
2021/03/04 11:05:32;;;;;;;53.80;27.37;;;13.20;97.20;;;;;;4973623;28;20223;-72
2021/03/04 11:07:58;;;;;;;53.77;27.80;;;13.30;97.30;;;;;;4992710;28;20210;-73
2021/03/04 11:10:25;;;;;;;62.03;28.47;;;13.40;97.20;;;;;;4954203;29;20695;-73
2021/03/04 11:12:53;;;;;;;54.83;26.40;;;13.40;97.10;;;;;;4954103;29;20356;-72
2021/03/04 11:15:19;;;;;;;57.13;28.67;;;13.50;97.10;;;;;;4881719;29;20291;-73
2021/03/04 11:17:46;;;;;;;47.90;25.87;;;13.60;97.00;;;;;;4882366;29;20219;-73
2021/03/04 11:20:13;;;;;;;49.97;25.03;;;13.70;97.00;;;;;;4917434;29;20211;-73
2021/03/04 11:22:40;;;;;;;53.63;27.10;;;13.80;96.90;;;;;;4916144;29;20224;-73
2021/03/04 11:25:07;;;;;;;49.27;25.40;;;13.80;96.50;;;;;;4909919;29;20200;-73
2021/03/04 11:27:34;;;;;;;53.27;27.57;;;13.70;96.00;;;;;;4915964;29;20236;-73
2021/03/04 11:30:02;;;;;;;49.83;24.57;;;13.60;95.90;;;;;;4897494;29;20204;-73
2021/03/04 11:32:28;;;;;;;51.50;25.50;;;13.50;95.90;;;;;;4913783;29;20320;-73
2021/03/04 11:34:55;;;;;;;48.60;25.23;;;13.40;95.60;;;;;;4935222;29;20202;-73
2021/03/04 11:37:22;;;;;;;51.07;25.37;;;13.30;95.60;;;;;;4919672;29;20204;-73
2021/03/04 11:39:49;;;;;;;49.30;25.00;;;13.20;95.60;;;;;;4947719;29;20212;-73
2021/03/04 11:42:16;;;;;;;47.30;24.17;;;13.20;95.60;;;;;;4951265;29;20316;-72
2021/03/04 11:44:45;;;;;;;50.70;25.53;;;13.10;95.80;;;;;;4954086;29;20209;-72
2021/03/04 11:47:12;;;;;;;47.60;26.10;;;13.10;96.00;;;;;;4970674;28;20339;-72
2021/03/04 11:49:39;;;;;;;60.57;30.23;;;13.00;96.10;;;;;;4993055;28;20314;-72
2021/03/04 11:52:06;;;;;;;53.83;28.83;;;13.00;96.40;;;;;;5006508;28;20219;-72
2021/03/04 11:54:33;;;;;;;55.50;28.90;;;12.90;96.60;;;;;;4953610;28;20742;-73
2021/03/04 11:56:59;;;;;;;56.47;29.40;;;12.90;96.80;;;;;;4934392;29;20206;-73
2021/03/04 11:59:26;;;;;;;55.00;27.67;;;12.80;97.00;;;;;;4902706;29;20641;-73
2021/03/04 12:01:53;;;;;;;52.83;26.97;;;12.80;97.30;;;;;;4902628;29;20333;-72
2021/03/04 12:04:20;;;;;;;56.70;28.87;;;12.80;97.50;;;;;;4896615;29;20210;-72
2021/03/04 12:06:47;;;;;;;53.83;28.40;;;12.80;97.70;;;;;;4930989;29;20221;-73
2021/03/04 12:09:13;;;;;;;55.43;28.40;;;12.80;97.90;;;;;;4934002;29;20674;-73
2021/03/04 12:11:40;;;;;;;49.37;25.23;;;12.80;98.00;;;;;;4915270;29;20210;-73
2021/03/04 12:14:07;;;;;;;55.00;27.53;;;12.80;98.00;;;;;;4934162;29;20209;-73
2021/03/04 12:16:34;;;;;;;54.73;27.77;;;12.90;98.20;;;;;;4915211;29;20629;-73
2021/03/04 12:19:01;;;;;;;53.63;26.10;;;12.80;98.30;;;;;;4892716;29;20654;-73
2021/03/04 12:21:28;;;;;;;49.70;27.23;;;12.90;98.40;;;;;;4911543;29;20337;-73
2021/03/04 12:23:55;;;;;;;53.87;27.57;;;12.90;98.50;;;;;;4915322;29;20209;-73
2021/03/04 12:26:22;;;;;;;53.70;27.17;;;12.90;98.60;;;;;;4895908;29;20729;-73
2021/03/04 12:28:48;;;;;;;52.67;27.67;;;13.00;98.70;;;;;;4930937;29;20205;-73
2021/03/04 12:31:15;;;;;;;61.40;29.00;;;13.10;98.70;;;;;;4934489;29;20213;-73
2021/03/04 12:33:42;;;;;;;56.07;28.20;;;13.00;98.70;;;;;;4865806;29;20208;-73
2021/03/04 12:36:09;;;;;;;63.53;30.77;;;13.10;98.80;;;;;;4829671;29;20203;-73